GPX2MI LIMC-LFSB
Flight info
| Callsign | GPX2MI |
|---|---|
| Flight time | 0h 43m |
| Altitude | 24000 |
| Route | PEPAG N851 ELMUR T718 RIGVI |
| Aircraft | B738/M-SDE2E3FGHIRWXY/LB1 |
Departure
| Time | 2026-05-05 18:15 |
|---|---|
| Airport | Milan Malpensa International Airport (LIMC) |
Arrival
| Time | 2026-05-05 18:58 |
|---|---|
| Airport | EuroAirport Basel–Mulhouse–Freiburg (LFSB) |
| Time | Latitude | Longitude | Altitude | Speed | Heading |
|---|---|---|---|---|---|
| 2026-05-05 17:58 | 45.62417 | 8.72007 | 727 ft | 0 kts | 79° |
| 2026-05-05 18:09 | 45.62418 | 8.72019 | 727 ft | 3 kts | 78° |
| 2026-05-05 18:09 | 45.62424 | 8.72074 | 729 ft | 7 kts | 95° |
| 2026-05-05 18:09 | 45.62387 | 8.72119 | 727 ft | 8 kts | 136° |
| 2026-05-05 18:09 | 45.62373 | 8.72189 | 727 ft | 7 kts | 102° |
| 2026-05-05 18:10 | 45.62336 | 8.72231 | 724 ft | 7 kts | 164° |
| 2026-05-05 18:10 | 45.62289 | 8.72246 | 725 ft | 7 kts | 171° |
| 2026-05-05 18:10 | 45.62242 | 8.72257 | 722 ft | 7 kts | 170° |
| 2026-05-05 18:10 | 45.62196 | 8.72269 | 722 ft | 7 kts | 169° |
| 2026-05-05 18:11 | 45.62143 | 8.72284 | 721 ft | 9 kts | 169° |
| 2026-05-05 18:11 | 45.62064 | 8.72305 | 720 ft | 14 kts | 169° |
| 2026-05-05 18:11 | 45.61954 | 8.72336 | 717 ft | 18 kts | 169° |
| 2026-05-05 18:11 | 45.61830 | 8.72370 | 716 ft | 19 kts | 169° |
| 2026-05-05 18:12 | 45.61703 | 8.72403 | 715 ft | 19 kts | 169° |
| 2026-05-05 18:12 | 45.61575 | 8.72439 | 700 ft | 19 kts | 168° |
| 2026-05-05 18:12 | 45.61457 | 8.72473 | 705 ft | 8 kts | 167° |
| 2026-05-05 18:12 | 45.61428 | 8.72497 | 698 ft | 5 kts | 129° |
| 2026-05-05 18:13 | 45.61423 | 8.72559 | 704 ft | 7 kts | 88° |
| 2026-05-05 18:13 | 45.61428 | 8.72643 | 703 ft | 9 kts | 79° |
| 2026-05-05 18:13 | 45.61436 | 8.72700 | 696 ft | 0 kts | 68° |
| 2026-05-05 18:13 | 45.61438 | 8.72706 | 697 ft | 1 kts | 68° |
| 2026-05-05 18:14 | 45.61452 | 8.72725 | 696 ft | 4 kts | 22° |
| 2026-05-05 18:14 | 45.61469 | 8.72724 | 705 ft | 0 kts | 351° |
| 2026-05-05 18:15 | 45.61688 | 8.72663 | 715 ft | 67 kts | 349° |
| 2026-05-05 18:15 | 45.62368 | 8.72476 | 724 ft | 128 kts | 349° |
| 2026-05-05 18:15 | 45.63405 | 8.72167 | 811 ft | 171 kts | 348° |
| 2026-05-05 18:15 | 45.64597 | 8.71862 | 1452 ft | 175 kts | 349° |
| 2026-05-05 18:16 | 45.65840 | 8.71449 | 2029 ft | 192 kts | 340° |
| 2026-05-05 18:16 | 45.67026 | 8.70412 | 2694 ft | 201 kts | 318° |
| 2026-05-05 18:16 | 45.67872 | 8.69042 | 3953 ft | 167 kts | 306° |
| 2026-05-05 18:16 | 45.68576 | 8.67723 | 4720 ft | 173 kts | 306° |
| 2026-05-05 18:17 | 45.69338 | 8.66267 | 5090 ft | 195 kts | 302° |
| 2026-05-05 18:17 | 45.70112 | 8.64611 | 5670 ft | 204 kts | 308° |
| 2026-05-05 18:17 | 45.71301 | 8.63515 | 6184 ft | 213 kts | 345° |
| 2026-05-05 18:17 | 45.72808 | 8.63594 | 6531 ft | 224 kts | 22° |
| 2026-05-05 18:18 | 45.74054 | 8.64907 | 7008 ft | 226 kts | 47° |
| 2026-05-05 18:18 | 45.75106 | 8.66637 | 7488 ft | 230 kts | 51° |
| 2026-05-05 18:18 | 45.76147 | 8.68471 | 7690 ft | 249 kts | 52° |
| 2026-05-05 18:18 | 45.77270 | 8.70462 | 7932 ft | 263 kts | 52° |
| 2026-05-05 18:19 | 45.78444 | 8.72529 | 8367 ft | 269 kts | 51° |
| 2026-05-05 18:19 | 45.79634 | 8.74609 | 8782 ft | 277 kts | 51° |
| 2026-05-05 18:19 | 45.80469 | 8.76062 | 8892 ft | 290 kts | 51° |
| 2026-05-05 18:19 | 45.82219 | 8.79095 | 9706 ft | 299 kts | 51° |
| 2026-05-05 18:20 | 45.83104 | 8.80624 | 10228 ft | 301 kts | 51° |
| 2026-05-05 18:20 | 45.84488 | 8.83015 | 10527 ft | 322 kts | 51° |
| 2026-05-05 18:20 | 45.85953 | 8.85545 | 10699 ft | 344 kts | 51° |
| 2026-05-05 18:20 | 45.87530 | 8.88269 | 10873 ft | 365 kts | 51° |
| 2026-05-05 18:21 | 45.89197 | 8.91149 | 11077 ft | 383 kts | 51° |
| 2026-05-05 18:21 | 45.90923 | 8.94132 | 11532 ft | 392 kts | 51° |
| 2026-05-05 18:21 | 45.92680 | 8.97171 | 12124 ft | 396 kts | 50° |
| 2026-05-05 18:21 | 45.94450 | 9.00238 | 12790 ft | 401 kts | 50° |
| 2026-05-05 18:22 | 45.96284 | 9.03278 | 13401 ft | 407 kts | 43° |
| 2026-05-05 18:22 | 45.98659 | 9.05530 | 13986 ft | 410 kts | 21° |
| 2026-05-05 18:22 | 46.01415 | 9.06548 | 14551 ft | 410 kts | 2° |
| 2026-05-05 18:22 | 46.04251 | 9.06345 | 15169 ft | 410 kts | 350° |
| 2026-05-05 18:23 | 46.07093 | 9.05822 | 15825 ft | 413 kts | 349° |
| 2026-05-05 18:23 | 46.09967 | 9.05290 | 16387 ft | 419 kts | 349° |
| 2026-05-05 18:23 | 46.12876 | 9.04793 | 17034 ft | 424 kts | 350° |
| 2026-05-05 18:23 | 46.15826 | 9.04316 | 17634 ft | 428 kts | 350° |
| 2026-05-05 18:24 | 46.18764 | 9.03886 | 18214 ft | 432 kts | 351° |
| 2026-05-05 18:24 | 46.21773 | 9.03482 | 18721 ft | 437 kts | 351° |
| 2026-05-05 18:24 | 46.24816 | 9.03085 | 19240 ft | 440 kts | 351° |
| 2026-05-05 18:24 | 46.27886 | 9.02680 | 19833 ft | 444 kts | 351° |
| 2026-05-05 18:25 | 46.30976 | 9.02270 | 20376 ft | 447 kts | 351° |
| 2026-05-05 18:25 | 46.33040 | 9.01993 | 20702 ft | 450 kts | 351° |
| 2026-05-05 18:25 | 46.37231 | 9.01426 | 21350 ft | 454 kts | 351° |
| 2026-05-05 18:25 | 46.40389 | 9.00995 | 21812 ft | 458 kts | 351° |
| 2026-05-05 18:26 | 46.43577 | 9.00563 | 22279 ft | 461 kts | 351° |
| 2026-05-05 18:26 | 46.46782 | 9.00135 | 22705 ft | 464 kts | 351° |
| 2026-05-05 18:26 | 46.50017 | 8.99703 | 23106 ft | 467 kts | 351° |
| 2026-05-05 18:26 | 46.53268 | 8.99266 | 23554 ft | 470 kts | 351° |
| 2026-05-05 18:27 | 46.56538 | 8.98830 | 23892 ft | 472 kts | 351° |
| 2026-05-05 18:27 | 46.59816 | 8.98393 | 23938 ft | 474 kts | 350° |
| 2026-05-05 18:27 | 46.63107 | 8.97948 | 23944 ft | 474 kts | 350° |
| 2026-05-05 18:27 | 46.66387 | 8.97499 | 23930 ft | 472 kts | 351° |
| 2026-05-05 18:28 | 46.72944 | 8.96594 | 23927 ft | 474 kts | 351° |
| 2026-05-05 18:28 | 46.76228 | 8.96143 | 23938 ft | 475 kts | 351° |
| 2026-05-05 18:28 | 46.79509 | 8.95692 | 23939 ft | 475 kts | 351° |
| 2026-05-05 18:29 | 46.82776 | 8.95243 | 23917 ft | 476 kts | 351° |
| 2026-05-05 18:29 | 46.86075 | 8.94789 | 23925 ft | 476 kts | 351° |
| 2026-05-05 18:29 | 46.89377 | 8.94337 | 23903 ft | 474 kts | 351° |
| 2026-05-05 18:29 | 46.92655 | 8.93893 | 23906 ft | 472 kts | 351° |
| 2026-05-05 18:30 | 46.95934 | 8.93455 | 23906 ft | 470 kts | 351° |
| 2026-05-05 18:30 | 46.99161 | 8.93025 | 23890 ft | 468 kts | 351° |
| 2026-05-05 18:30 | 47.02418 | 8.92585 | 23882 ft | 468 kts | 352° |
| 2026-05-05 18:30 | 47.05657 | 8.92152 | 23892 ft | 467 kts | 352° |
| 2026-05-05 18:31 | 47.08846 | 8.91725 | 23894 ft | 466 kts | 352° |
| 2026-05-05 18:31 | 47.12072 | 8.91269 | 23897 ft | 465 kts | 349° |
| 2026-05-05 18:31 | 47.15225 | 8.90291 | 23887 ft | 461 kts | 340° |
| 2026-05-05 18:31 | 47.18191 | 8.88571 | 23866 ft | 456 kts | 326° |
| 2026-05-05 18:32 | 47.20585 | 8.85630 | 23897 ft | 446 kts | 306° |
| 2026-05-05 18:32 | 47.22300 | 8.81913 | 23897 ft | 441 kts | 296° |
| 2026-05-05 18:32 | 47.23786 | 8.77926 | 23899 ft | 448 kts | 294° |
| 2026-05-05 18:32 | 47.25225 | 8.73845 | 23886 ft | 448 kts | 294° |
| 2026-05-05 18:33 | 47.26633 | 8.69781 | 23887 ft | 445 kts | 294° |
| 2026-05-05 18:33 | 47.28033 | 8.65717 | 23887 ft | 445 kts | 294° |
| 2026-05-05 18:33 | 47.29433 | 8.61629 | 23736 ft | 448 kts | 294° |
| 2026-05-05 18:33 | 47.30835 | 8.57519 | 23498 ft | 448 kts | 294° |
| 2026-05-05 18:34 | 47.32229 | 8.53417 | 23234 ft | 448 kts | 293° |
| 2026-05-05 18:34 | 47.33623 | 8.49302 | 22976 ft | 450 kts | 293° |
| 2026-05-05 18:34 | 47.35019 | 8.45170 | 22695 ft | 450 kts | 293° |
| 2026-05-05 18:34 | 47.36411 | 8.41044 | 22427 ft | 450 kts | 293° |
| 2026-05-05 18:35 | 47.37796 | 8.36935 | 22151 ft | 441 kts | 293° |
| 2026-05-05 18:35 | 47.39151 | 8.32920 | 21884 ft | 434 kts | 293° |
| 2026-05-05 18:35 | 47.40496 | 8.28935 | 21620 ft | 433 kts | 293° |
| 2026-05-05 18:35 | 47.41841 | 8.24937 | 21365 ft | 435 kts | 293° |
| 2026-05-05 18:36 | 47.43187 | 8.20933 | 21107 ft | 435 kts | 293° |
| 2026-05-05 18:36 | 47.44534 | 8.16917 | 20855 ft | 436 kts | 293° |
| 2026-05-05 18:36 | 47.45876 | 8.12912 | 20604 ft | 436 kts | 293° |
| 2026-05-05 18:36 | 47.47220 | 8.08896 | 20356 ft | 436 kts | 293° |
| 2026-05-05 18:37 | 47.48565 | 8.04875 | 20111 ft | 435 kts | 293° |
| 2026-05-05 18:37 | 47.49886 | 8.00918 | 19859 ft | 435 kts | 293° |
| 2026-05-05 18:37 | 47.51217 | 7.96930 | 19747 ft | 427 kts | 293° |
| 2026-05-05 18:37 | 47.52513 | 7.93053 | 19733 ft | 411 kts | 293° |
| 2026-05-05 18:38 | 47.53747 | 7.89385 | 19676 ft | 387 kts | 293° |
| 2026-05-05 18:38 | 47.54948 | 7.85828 | 19361 ft | 382 kts | 293° |
| 2026-05-05 18:38 | 47.56124 | 7.82351 | 19063 ft | 375 kts | 293° |
| 2026-05-05 18:38 | 47.57294 | 7.78892 | 18778 ft | 375 kts | 293° |
| 2026-05-05 18:39 | 47.58465 | 7.75420 | 18488 ft | 374 kts | 293° |
| 2026-05-05 18:39 | 47.59616 | 7.71999 | 18209 ft | 373 kts | 293° |
| 2026-05-05 18:39 | 47.60773 | 7.68554 | 17891 ft | 371 kts | 293° |
| 2026-05-05 18:39 | 47.61915 | 7.65150 | 17538 ft | 371 kts | 293° |
| 2026-05-05 18:40 | 47.63066 | 7.61716 | 17138 ft | 370 kts | 293° |
| 2026-05-05 18:40 | 47.64201 | 7.58328 | 16748 ft | 368 kts | 293° |
| 2026-05-05 18:40 | 47.65342 | 7.54921 | 16359 ft | 365 kts | 293° |
| 2026-05-05 18:40 | 47.66466 | 7.51562 | 15975 ft | 362 kts | 293° |
| 2026-05-05 18:41 | 47.67575 | 7.48234 | 15594 ft | 357 kts | 291° |
| 2026-05-05 18:41 | 47.68157 | 7.44726 | 15201 ft | 347 kts | 270° |
| 2026-05-05 18:41 | 47.68086 | 7.41174 | 14858 ft | 342 kts | 264° |
| 2026-05-05 18:41 | 47.67887 | 7.37671 | 14488 ft | 340 kts | 263° |
| 2026-05-05 18:42 | 47.67662 | 7.34193 | 14130 ft | 338 kts | 262° |
| 2026-05-05 18:42 | 47.67430 | 7.30727 | 13775 ft | 336 kts | 262° |
| 2026-05-05 18:42 | 47.67199 | 7.27330 | 13404 ft | 335 kts | 262° |
| 2026-05-05 18:42 | 47.66961 | 7.23865 | 13009 ft | 338 kts | 262° |
| 2026-05-05 18:43 | 47.66724 | 7.20406 | 12629 ft | 335 kts | 262° |
| 2026-05-05 18:43 | 47.66787 | 7.16984 | 12234 ft | 334 kts | 282° |
| 2026-05-05 18:43 | 47.67858 | 7.13952 | 11878 ft | 334 kts | 309° |
| 2026-05-05 18:43 | 47.69746 | 7.12005 | 11517 ft | 333 kts | 336° |
| 2026-05-05 18:44 | 47.72012 | 7.11586 | 11188 ft | 329 kts | 5° |
| 2026-05-05 18:44 | 47.74101 | 7.12772 | 10902 ft | 322 kts | 35° |
| 2026-05-05 18:44 | 47.75656 | 7.15080 | 10661 ft | 310 kts | 51° |
| 2026-05-05 18:44 | 47.76962 | 7.17542 | 10400 ft | 299 kts | 52° |
| 2026-05-05 18:45 | 47.78206 | 7.19966 | 10145 ft | 290 kts | 53° |
| 2026-05-05 18:45 | 47.79409 | 7.22323 | 9889 ft | 282 kts | 53° |
| 2026-05-05 18:45 | 47.80581 | 7.24627 | 9598 ft | 276 kts | 53° |
| 2026-05-05 18:45 | 47.81730 | 7.26891 | 9246 ft | 272 kts | 53° |
| 2026-05-05 18:46 | 47.82855 | 7.29114 | 8926 ft | 264 kts | 53° |
| 2026-05-05 18:46 | 47.84082 | 7.31041 | 8538 ft | 251 kts | 26° |
| 2026-05-05 18:46 | 47.85657 | 7.31739 | 8233 ft | 232 kts | 3° |
| 2026-05-05 18:46 | 47.87224 | 7.32067 | 7900 ft | 223 kts | 3° |
| 2026-05-05 18:47 | 47.88737 | 7.32385 | 7580 ft | 216 kts | 3° |
| 2026-05-05 18:47 | 47.90219 | 7.32699 | 7301 ft | 213 kts | 3° |
| 2026-05-05 18:47 | 47.91637 | 7.33345 | 7000 ft | 220 kts | 37° |
| 2026-05-05 18:47 | 47.92479 | 7.35265 | 7008 ft | 227 kts | 81° |
| 2026-05-05 18:48 | 47.92310 | 7.37471 | 6996 ft | 210 kts | 126° |
| 2026-05-05 18:48 | 47.91278 | 7.38796 | 6984 ft | 190 kts | 172° |
| 2026-05-05 18:48 | 47.89993 | 7.38702 | 6635 ft | 190 kts | 202° |
| 2026-05-05 18:48 | 47.88704 | 7.38236 | 6134 ft | 190 kts | 194° |
| 2026-05-05 18:49 | 47.87455 | 7.37926 | 5878 ft | 180 kts | 194° |
| 2026-05-05 18:49 | 47.86229 | 7.37608 | 5652 ft | 180 kts | 195° |
| 2026-05-05 18:49 | 47.84978 | 7.37268 | 5445 ft | 183 kts | 195° |
| 2026-05-05 18:49 | 47.83719 | 7.36918 | 5247 ft | 184 kts | 195° |
| 2026-05-05 18:50 | 47.82436 | 7.36967 | 5010 ft | 191 kts | 166° |
| 2026-05-05 18:50 | 47.81214 | 7.37668 | 4838 ft | 184 kts | 166° |
| 2026-05-05 18:50 | 47.80040 | 7.38364 | 4609 ft | 178 kts | 164° |
| 2026-05-05 18:50 | 47.78916 | 7.39093 | 4405 ft | 175 kts | 163° |
| 2026-05-05 18:51 | 47.77820 | 7.39831 | 4240 ft | 176 kts | 162° |
| 2026-05-05 18:51 | 47.76733 | 7.40579 | 4099 ft | 169 kts | 162° |
| 2026-05-05 18:51 | 47.75673 | 7.41313 | 3874 ft | 167 kts | 162° |
| 2026-05-05 18:51 | 47.74618 | 7.42045 | 3658 ft | 166 kts | 162° |
| 2026-05-05 18:52 | 47.73595 | 7.42758 | 3432 ft | 157 kts | 162° |
| 2026-05-05 18:52 | 47.72738 | 7.43355 | 3252 ft | 153 kts | 162° |
| 2026-05-05 18:52 | 47.71780 | 7.44021 | 3075 ft | 152 kts | 163° |
| 2026-05-05 18:52 | 47.70841 | 7.44673 | 2869 ft | 146 kts | 162° |
| 2026-05-05 18:53 | 47.69943 | 7.45298 | 2672 ft | 143 kts | 162° |
| 2026-05-05 18:53 | 47.69041 | 7.45925 | 2530 ft | 142 kts | 162° |
| 2026-05-05 18:53 | 47.68128 | 7.46558 | 2292 ft | 145 kts | 161° |
| 2026-05-05 18:53 | 47.67223 | 7.47188 | 2104 ft | 144 kts | 160° |
| 2026-05-05 18:54 | 47.66333 | 7.47809 | 1893 ft | 138 kts | 160° |
| 2026-05-05 18:54 | 47.65486 | 7.48400 | 1731 ft | 132 kts | 159° |
| 2026-05-05 18:54 | 47.64671 | 7.48963 | 1535 ft | 126 kts | 157° |
| 2026-05-05 18:54 | 47.63884 | 7.49548 | 1511 ft | 129 kts | 153° |
| 2026-05-05 18:55 | 47.63149 | 7.50321 | 1625 ft | 132 kts | 136° |
| 2026-05-05 18:55 | 47.62667 | 7.51502 | 1648 ft | 134 kts | 115° |
| 2026-05-05 18:55 | 47.62292 | 7.52754 | 1685 ft | 133 kts | 115° |
| 2026-05-05 18:55 | 47.62053 | 7.54089 | 1681 ft | 137 kts | 92° |
| 2026-05-05 18:56 | 47.62208 | 7.55455 | 1681 ft | 136 kts | 74° |
| 2026-05-05 18:56 | 47.62463 | 7.56802 | 1658 ft | 134 kts | 76° |
| 2026-05-05 18:56 | 47.62396 | 7.58153 | 1575 ft | 134 kts | 112° |
| 2026-05-05 18:56 | 47.61789 | 7.59159 | 1502 ft | 131 kts | 152° |
| 2026-05-05 18:57 | 47.60912 | 7.59436 | 1461 ft | 130 kts | 186° |
| 2026-05-05 18:57 | 47.60082 | 7.58993 | 1457 ft | 128 kts | 218° |
| 2026-05-05 18:57 | 47.59691 | 7.57878 | 1384 ft | 126 kts | 263° |
| 2026-05-05 18:57 | 47.59552 | 7.56592 | 1269 ft | 127 kts | 260° |
| 2026-05-05 18:58 | 47.59369 | 7.55329 | 1119 ft | 123 kts | 257° |
| 2026-05-05 18:58 | 47.59168 | 7.54099 | 955 ft | 123 kts | 257° |
| 2026-05-05 18:58 | 47.58995 | 7.52987 | 889 ft | 77 kts | 257° |
| 2026-05-05 18:58 | 47.58922 | 7.52509 | 894 ft | 37 kts | 257° |
| 2026-05-05 18:59 | 47.58868 | 7.52153 | 895 ft | 35 kts | 257° |
| 2026-05-05 18:59 | 47.58818 | 7.51839 | 892 ft | 21 kts | 257° |
| 2026-05-05 18:59 | 47.58826 | 7.51710 | 890 ft | 10 kts | 301° |
| 2026-05-05 18:59 | 47.58839 | 7.51695 | 889 ft | 3 kts | 327° |
| 2026-05-05 19:00 | 47.58868 | 7.51682 | 889 ft | 6 kts | 346° |
| 2026-05-05 19:00 | 47.58917 | 7.51669 | 889 ft | 8 kts | 0° |
| 2026-05-05 19:00 | 47.58968 | 7.51702 | 889 ft | 8 kts | 32° |
| 2026-05-05 19:00 | 47.59008 | 7.51760 | 891 ft | 8 kts | 46° |
| 2026-05-05 19:01 | 47.59047 | 7.51819 | 892 ft | 8 kts | 46° |
| 2026-05-05 19:01 | 47.59094 | 7.51891 | 891 ft | 11 kts | 46° |
| 2026-05-05 19:01 | 47.59155 | 7.51984 | 890 ft | 14 kts | 45° |
| 2026-05-05 19:01 | 47.59226 | 7.52091 | 889 ft | 16 kts | 45° |
| 2026-05-05 19:02 | 47.59289 | 7.52236 | 887 ft | 18 kts | 63° |
| 2026-05-05 19:02 | 47.59342 | 7.52402 | 888 ft | 18 kts | 64° |
| 2026-05-05 19:02 | 47.59395 | 7.52562 | 890 ft | 17 kts | 64° |
| 2026-05-05 19:02 | 47.59444 | 7.52717 | 894 ft | 13 kts | 67° |
| 2026-05-05 19:03 | 47.59474 | 7.52813 | 895 ft | 8 kts | 57° |
| 2026-05-05 19:03 | 47.59526 | 7.52839 | 893 ft | 9 kts | 343° |
| 2026-05-05 19:03 | 47.59590 | 7.52797 | 891 ft | 11 kts | 336° |
| 2026-05-05 19:03 | 47.59661 | 7.52750 | 891 ft | 11 kts | 336° |
| 2026-05-05 19:04 | 47.59730 | 7.52702 | 890 ft | 11 kts | 334° |
| 2026-05-05 19:04 | 47.59803 | 7.52650 | 888 ft | 12 kts | 334° |
| 2026-05-05 19:04 | 47.59880 | 7.52594 | 889 ft | 12 kts | 333° |
| 2026-05-05 19:04 | 47.59949 | 7.52546 | 889 ft | 3 kts | 336° |
| 2026-05-05 19:05 | 47.59971 | 7.52537 | 889 ft | 4 kts | 356° |
| 2026-05-05 19:05 | 47.59997 | 7.52561 | 888 ft | 5 kts | 69° |
| 2026-05-05 19:05 | 47.60009 | 7.52607 | 887 ft | 9 kts | 66° |
| 2026-05-05 19:05 | 47.60039 | 7.52706 | 887 ft | 12 kts | 66° |
| 2026-05-05 19:06 | 47.60041 | 7.52839 | 885 ft | 15 kts | 102° |
| 2026-05-05 19:06 | 47.60035 | 7.52860 | 885 ft | 3 kts | 119° |
| 2026-05-05 19:06 | 47.60012 | 7.52894 | 885 ft | 7 kts | 143° |
| 2026-05-05 19:06 | 47.59968 | 7.52933 | 886 ft | 6 kts | 154° |
| 2026-05-05 19:07 | 47.59967 | 7.52933 | 886 ft | 0 kts | 154° |